sensor_id;sensor_type;location;lat;lon;timestamp;P1;durP1;ratioP1;P2;durP2;ratioP2
37955;SDS011;23776;51.592;7.180;2023-04-25T00:02:04;21.73;;;6.60;;
37955;SDS011;23776;51.592;7.180;2023-04-25T00:04:30;20.42;;;6.93;;
37955;SDS011;23776;51.592;7.180;2023-04-25T00:06:57;26.65;;;7.07;;
37955;SDS011;23776;51.592;7.180;2023-04-25T00:09:26;14.73;;;6.30;;
37955;SDS011;23776;51.592;7.180;2023-04-25T00:11:52;26.55;;;7.20;;
37955;SDS011;23776;51.592;7.180;2023-04-25T00:14:18;27.17;;;7.00;;
37955;SDS011;23776;51.592;7.180;2023-04-25T00:16:44;23.20;;;7.43;;
37955;SDS011;23776;51.592;7.180;2023-04-25T00:19:09;17.00;;;6.57;;
37955;SDS011;23776;51.592;7.180;2023-04-25T00:21:35;27.02;;;6.80;;
37955;SDS011;23776;51.592;7.180;2023-04-25T00:24:02;16.67;;;6.82;;
37955;SDS011;23776;51.592;7.180;2023-04-25T00:26:28;13.55;;;6.10;;
37955;SDS011;23776;51.592;7.180;2023-04-25T00:28:54;19.38;;;5.53;;
37955;SDS011;23776;51.592;7.180;2023-04-25T00:31:20;13.82;;;5.75;;
37955;SDS011;23776;51.592;7.180;2023-04-25T00:33:47;14.23;;;5.07;;
37955;SDS011;23776;51.592;7.180;2023-04-25T00:36:13;22.10;;;5.50;;
37955;SDS011;23776;51.592;7.180;2023-04-25T00:38:38;14.02;;;5.18;;
37955;SDS011;23776;51.592;7.180;2023-04-25T00:41:07;22.20;;;6.82;;
37955;SDS011;23776;51.592;7.180;2023-04-25T00:43:33;19.13;;;5.82;;
37955;SDS011;23776;51.592;7.180;2023-04-25T00:46:01;18.42;;;5.93;;
37955;SDS011;23776;51.592;7.180;2023-04-25T00:48:26;17.83;;;6.45;;
37955;SDS011;23776;51.592;7.180;2023-04-25T00:50:53;16.08;;;5.57;;
37955;SDS011;23776;51.592;7.180;2023-04-25T00:53:20;18.70;;;6.55;;
37955;SDS011;23776;51.592;7.180;2023-04-25T00:55:47;18.77;;;6.07;;
37955;SDS011;23776;51.592;7.180;2023-04-25T00:58:15;14.18;;;5.93;;
37955;SDS011;23776;51.592;7.180;2023-04-25T01:00:42;18.95;;;5.65;;
37955;SDS011;23776;51.592;7.180;2023-04-25T01:03:08;10.88;;;4.63;;
37955;SDS011;23776;51.592;7.180;2023-04-25T01:05:34;18.90;;;5.35;;
37955;SDS011;23776;51.592;7.180;2023-04-25T01:08:00;11.60;;;4.47;;
37955;SDS011;23776;51.592;7.180;2023-04-25T01:10:26;13.25;;;4.78;;
37955;SDS011;23776;51.592;7.180;2023-04-25T01:12:52;16.23;;;4.60;;
37955;SDS011;23776;51.592;7.180;2023-04-25T01:15:17;18.50;;;4.72;;
37955;SDS011;23776;51.592;7.180;2023-04-25T01:17:43;14.00;;;4.38;;
37955;SDS011;23776;51.592;7.180;2023-04-25T01:20:09;13.55;;;4.35;;
37955;SDS011;23776;51.592;7.180;2023-04-25T01:22:36;13.60;;;4.28;;
37955;SDS011;23776;51.592;7.180;2023-04-25T01:25:03;15.60;;;4.28;;
37955;SDS011;23776;51.592;7.180;2023-04-25T01:27:29;15.77;;;4.90;;
37955;SDS011;23776;51.592;7.180;2023-04-25T01:29:55;17.67;;;5.35;;
37955;SDS011;23776;51.592;7.180;2023-04-25T01:32:22;9.85;;;4.03;;
37955;SDS011;23776;51.592;7.180;2023-04-25T01:34:48;8.27;;;4.13;;
37955;SDS011;23776;51.592;7.180;2023-04-25T01:37:14;13.23;;;4.05;;
37955;SDS011;23776;51.592;7.180;2023-04-25T01:39:41;10.23;;;4.45;;
37955;SDS011;23776;51.592;7.180;2023-04-25T01:42:07;12.10;;;4.63;;
37955;SDS011;23776;51.592;7.180;2023-04-25T01:44:32;12.88;;;4.43;;
37955;SDS011;23776;51.592;7.180;2023-04-25T01:46:58;11.65;;;4.30;;
37955;SDS011;23776;51.592;7.180;2023-04-25T01:49:24;17.08;;;4.88;;
37955;SDS011;23776;51.592;7.180;2023-04-25T01:51:50;14.80;;;4.50;;
37955;SDS011;23776;51.592;7.180;2023-04-25T01:54:16;17.70;;;4.63;;
37955;SDS011;23776;51.592;7.180;2023-04-25T01:56:43;13.75;;;4.78;;
37955;SDS011;23776;51.592;7.180;2023-04-25T01:59:08;17.00;;;5.70;;
37955;SDS011;23776;51.592;7.180;2023-04-25T02:01:34;13.07;;;5.68;;
37955;SDS011;23776;51.592;7.180;2023-04-25T02:04:00;18.80;;;7.00;;
37955;SDS011;23776;51.592;7.180;2023-04-25T02:06:25;18.70;;;6.95;;
37955;SDS011;23776;51.592;7.180;2023-04-25T02:08:51;17.10;;;6.38;;
37955;SDS011;23776;51.592;7.180;2023-04-25T02:11:16;15.40;;;6.05;;
37955;SDS011;23776;51.592;7.180;2023-04-25T02:13:42;17.05;;;7.18;;
37955;SDS011;23776;51.592;7.180;2023-04-25T02:16:08;20.92;;;6.95;;
37955;SDS011;23776;51.592;7.180;2023-04-25T02:18:33;18.98;;;6.53;;
37955;SDS011;23776;51.592;7.180;2023-04-25T02:20:59;25.67;;;7.47;;
37955;SDS011;23776;51.592;7.180;2023-04-25T02:23:26;18.63;;;6.78;;
37955;SDS011;23776;51.592;7.180;2023-04-25T02:25:51;21.40;;;7.45;;
37955;SDS011;23776;51.592;7.180;2023-04-25T02:28:17;19.20;;;7.50;;
37955;SDS011;23776;51.592;7.180;2023-04-25T02:30:43;24.73;;;7.60;;
37955;SDS011;23776;51.592;7.180;2023-04-25T02:33:08;27.65;;;8.40;;
37955;SDS011;23776;51.592;7.180;2023-04-25T02:35:34;19.23;;;7.68;;
37955;SDS011;23776;51.592;7.180;2023-04-25T02:38:00;22.75;;;8.35;;
37955;SDS011;23776;51.592;7.180;2023-04-25T02:40:25;20.15;;;7.78;;
37955;SDS011;23776;51.592;7.180;2023-04-25T02:42:51;18.02;;;7.07;;
37955;SDS011;23776;51.592;7.180;2023-04-25T02:45:17;17.73;;;7.18;;
37955;SDS011;23776;51.592;7.180;2023-04-25T02:47:42;17.73;;;7.60;;
37955;SDS011;23776;51.592;7.180;2023-04-25T02:50:08;31.25;;;7.25;;
37955;SDS011;23776;51.592;7.180;2023-04-25T02:52:33;21.05;;;6.40;;
37955;SDS011;23776;51.592;7.180;2023-04-25T02:54:59;18.10;;;6.38;;
37955;SDS011;23776;51.592;7.180;2023-04-25T02:57:24;26.08;;;6.43;;
37955;SDS011;23776;51.592;7.180;2023-04-25T02:59:50;19.45;;;5.75;;
37955;SDS011;23776;51.592;7.180;2023-04-25T03:02:16;21.52;;;6.13;;
37955;SDS011;23776;51.592;7.180;2023-04-25T03:04:41;17.25;;;6.18;;
37955;SDS011;23776;51.592;7.180;2023-04-25T03:07:07;19.05;;;6.50;;
37955;SDS011;23776;51.592;7.180;2023-04-25T03:09:33;21.35;;;6.07;;
37955;SDS011;23776;51.592;7.180;2023-04-25T03:11:58;14.27;;;5.38;;
37955;SDS011;23776;51.592;7.180;2023-04-25T03:14:24;21.63;;;5.88;;
37955;SDS011;23776;51.592;7.180;2023-04-25T03:16:49;22.83;;;6.32;;
37955;SDS011;23776;51.592;7.180;2023-04-25T03:19:15;17.33;;;5.85;;
37955;SDS011;23776;51.592;7.180;2023-04-25T03:21:42;24.77;;;5.60;;
37955;SDS011;23776;51.592;7.180;2023-04-25T03:24:08;20.63;;;5.53;;
37955;SDS011;23776;51.592;7.180;2023-04-25T03:26:33;15.52;;;5.03;;
37955;SDS011;23776;51.592;7.180;2023-04-25T03:28:59;17.30;;;5.80;;
37955;SDS011;23776;51.592;7.180;2023-04-25T03:31:24;19.38;;;5.68;;
37955;SDS011;23776;51.592;7.180;2023-04-25T03:33:50;26.95;;;7.43;;
37955;SDS011;23776;51.592;7.180;2023-04-25T03:36:15;21.02;;;6.68;;
37955;SDS011;23776;51.592;7.180;2023-04-25T03:38:41;26.58;;;6.60;;
37955;SDS011;23776;51.592;7.180;2023-04-25T03:41:07;22.77;;;6.43;;
37955;SDS011;23776;51.592;7.180;2023-04-25T03:43:33;16.92;;;6.53;;
37955;SDS011;23776;51.592;7.180;2023-04-25T03:45:58;25.92;;;6.15;;
37955;SDS011;23776;51.592;7.180;2023-04-25T03:48:25;23.08;;;7.35;;
37955;SDS011;23776;51.592;7.180;2023-04-25T03:50:51;18.77;;;5.45;;
37955;SDS011;23776;51.592;7.180;2023-04-25T03:53:17;14.85;;;4.00;;
37955;SDS011;23776;51.592;7.180;2023-04-25T03:55:43;12.35;;;4.43;;
37955;SDS011;23776;51.592;7.180;2023-04-25T03:58:09;22.30;;;4.03;;
37955;SDS011;23776;51.592;7.180;2023-04-25T04:00:34;18.10;;;4.78;;
37955;SDS011;23776;51.592;7.180;2023-04-25T04:03:00;12.80;;;3.47;;
37955;SDS011;23776;51.592;7.180;2023-04-25T04:05:26;13.07;;;4.22;;
37955;SDS011;23776;51.592;7.180;2023-04-25T04:07:52;20.00;;;3.75;;
37955;SDS011;23776;51.592;7.180;2023-04-25T04:10:18;13.93;;;3.53;;
37955;SDS011;23776;51.592;7.180;2023-04-25T04:12:44;12.25;;;3.42;;
37955;SDS011;23776;51.592;7.180;2023-04-25T04:15:09;15.02;;;4.00;;
37955;SDS011;23776;51.592;7.180;2023-04-25T04:17:35;14.95;;;3.15;;
37955;SDS011;23776;51.592;7.180;2023-04-25T04:20:01;17.30;;;4.07;;
37955;SDS011;23776;51.592;7.180;2023-04-25T04:22:28;22.70;;;3.80;;
37955;SDS011;23776;51.592;7.180;2023-04-25T04:24:54;11.85;;;3.65;;
37955;SDS011;23776;51.592;7.180;2023-04-25T04:27:21;15.93;;;4.03;;
37955;SDS011;23776;51.592;7.180;2023-04-25T04:29:47;13.65;;;3.30;;
37955;SDS011;23776;51.592;7.180;2023-04-25T04:32:13;21.20;;;5.20;;
37955;SDS011;23776;51.592;7.180;2023-04-25T04:34:40;12.13;;;4.05;;
37955;SDS011;23776;51.592;7.180;2023-04-25T04:37:06;11.25;;;3.40;;
37955;SDS011;23776;51.592;7.180;2023-04-25T04:39:32;20.45;;;3.78;;
37955;SDS011;23776;51.592;7.180;2023-04-25T04:41:59;14.55;;;3.90;;
37955;SDS011;23776;51.592;7.180;2023-04-25T04:44:26;11.40;;;3.60;;
37955;SDS011;23776;51.592;7.180;2023-04-25T04:46:53;18.48;;;3.55;;
37955;SDS011;23776;51.592;7.180;2023-04-25T04:49:19;15.13;;;3.55;;
37955;SDS011;23776;51.592;7.180;2023-04-25T04:51:45;9.73;;;4.05;;
37955;SDS011;23776;51.592;7.180;2023-04-25T04:54:12;12.93;;;4.38;;
37955;SDS011;23776;51.592;7.180;2023-04-25T04:56:37;13.77;;;4.47;;
37955;SDS011;23776;51.592;7.180;2023-04-25T04:59:03;17.90;;;4.78;;
37955;SDS011;23776;51.592;7.180;2023-04-25T05:01:29;11.82;;;4.45;;
37955;SDS011;23776;51.592;7.180;2023-04-25T05:03:55;17.92;;;4.55;;
37955;SDS011;23776;51.592;7.180;2023-04-25T05:06:25;17.00;;;4.13;;
37955;SDS011;23776;51.592;7.180;2023-04-25T05:08:52;19.60;;;4.53;;
37955;SDS011;23776;51.592;7.180;2023-04-25T05:11:20;18.65;;;4.10;;
37955;SDS011;23776;51.592;7.180;2023-04-25T05:13:46;13.75;;;4.57;;
37955;SDS011;23776;51.592;7.180;2023-04-25T05:16:12;22.02;;;4.95;;
37955;SDS011;23776;51.592;7.180;2023-04-25T05:18:38;21.23;;;4.93;;
37955;SDS011;23776;51.592;7.180;2023-04-25T05:21:04;21.23;;;5.55;;
37955;SDS011;23776;51.592;7.180;2023-04-25T05:23:30;18.00;;;5.10;;
37955;SDS011;23776;51.592;7.180;2023-04-25T05:25:57;21.02;;;5.15;;
37955;SDS011;23776;51.592;7.180;2023-04-25T05:28:23;14.98;;;4.80;;
37955;SDS011;23776;51.592;7.180;2023-04-25T05:30:48;16.02;;;4.90;;
37955;SDS011;23776;51.592;7.180;2023-04-25T05:33:14;15.80;;;6.25;;
37955;SDS011;23776;51.592;7.180;2023-04-25T05:35:40;17.63;;;6.53;;
37955;SDS011;23776;51.592;7.180;2023-04-25T05:38:06;22.65;;;5.30;;
37955;SDS011;23776;51.592;7.180;2023-04-25T05:40:31;24.08;;;5.65;;
37955;SDS011;23776;51.592;7.180;2023-04-25T05:42:57;19.75;;;6.00;;
37955;SDS011;23776;51.592;7.180;2023-04-25T05:45:22;21.77;;;5.75;;
37955;SDS011;23776;51.592;7.180;2023-04-25T05:47:48;23.95;;;6.53;;
37955;SDS011;23776;51.592;7.180;2023-04-25T05:50:13;25.73;;;6.50;;
37955;SDS011;23776;51.592;7.180;2023-04-25T05:52:39;24.60;;;6.72;;
37955;SDS011;23776;51.592;7.180;2023-04-25T05:55:05;29.77;;;7.50;;
37955;SDS011;23776;51.592;7.180;2023-04-25T05:57:31;22.42;;;6.38;;
37955;SDS011;23776;51.592;7.180;2023-04-25T05:59:57;30.67;;;7.15;;
37955;SDS011;23776;51.592;7.180;2023-04-25T06:02:22;19.70;;;6.15;;
37955;SDS011;23776;51.592;7.180;2023-04-25T06:04:49;27.65;;;6.53;;
37955;SDS011;23776;51.592;7.180;2023-04-25T06:07:15;22.45;;;6.70;;
37955;SDS011;23776;51.592;7.180;2023-04-25T06:09:41;25.15;;;6.47;;
37955;SDS011;23776;51.592;7.180;2023-04-25T06:12:07;25.88;;;7.03;;
37955;SDS011;23776;51.592;7.180;2023-04-25T06:14:35;22.20;;;6.80;;
37955;SDS011;23776;51.592;7.180;2023-04-25T06:17:02;31.17;;;7.35;;
37955;SDS011;23776;51.592;7.180;2023-04-25T06:19:35;28.85;;;7.63;;
37955;SDS011;23776;51.592;7.180;2023-04-25T06:22:01;20.17;;;7.03;;
37955;SDS011;23776;51.592;7.180;2023-04-25T06:24:26;29.70;;;7.38;;
37955;SDS011;23776;51.592;7.180;2023-04-25T06:26:53;30.27;;;5.97;;
37955;SDS011;23776;51.592;7.180;2023-04-25T06:29:19;24.55;;;6.85;;
37955;SDS011;23776;51.592;7.180;2023-04-25T06:31:44;25.15;;;6.32;;
37955;SDS011;23776;51.592;7.180;2023-04-25T06:34:10;26.02;;;5.10;;
37955;SDS011;23776;51.592;7.180;2023-04-25T06:36:35;25.60;;;5.65;;
37955;SDS011;23776;51.592;7.180;2023-04-25T06:39:01;21.35;;;6.05;;
37955;SDS011;23776;51.592;7.180;2023-04-25T06:41:27;28.40;;;6.72;;
37955;SDS011;23776;51.592;7.180;2023-04-25T06:43:53;13.95;;;5.72;;
37955;SDS011;23776;51.592;7.180;2023-04-25T06:46:18;28.50;;;6.05;;
37955;SDS011;23776;51.592;7.180;2023-04-25T06:48:44;30.33;;;6.70;;
37955;SDS011;23776;51.592;7.180;2023-04-25T06:51:10;22.40;;;5.82;;
37955;SDS011;23776;51.592;7.180;2023-04-25T06:53:35;27.33;;;6.75;;
37955;SDS011;23776;51.592;7.180;2023-04-25T06:56:01;22.27;;;5.60;;
37955;SDS011;23776;51.592;7.180;2023-04-25T06:58:28;25.30;;;5.70;;
37955;SDS011;23776;51.592;7.180;2023-04-25T07:00:53;18.00;;;5.20;;
37955;SDS011;23776;51.592;7.180;2023-04-25T07:03:19;19.85;;;5.80;;
37955;SDS011;23776;51.592;7.180;2023-04-25T07:05:44;29.70;;;6.47;;
37955;SDS011;23776;51.592;7.180;2023-04-25T07:08:10;26.48;;;5.80;;
37955;SDS011;23776;51.592;7.180;2023-04-25T07:10:36;20.17;;;5.38;;
37955;SDS011;23776;51.592;7.180;2023-04-25T07:13:02;33.25;;;5.95;;
37955;SDS011;23776;51.592;7.180;2023-04-25T07:15:28;17.20;;;4.60;;
37955;SDS011;23776;51.592;7.180;2023-04-25T07:17:54;25.00;;;5.82;;
37955;SDS011;23776;51.592;7.180;2023-04-25T07:20:19;21.05;;;5.15;;
37955;SDS011;23776;51.592;7.180;2023-04-25T07:22:45;15.07;;;4.15;;
37955;SDS011;23776;51.592;7.180;2023-04-25T07:25:11;12.48;;;3.70;;
37955;SDS011;23776;51.592;7.180;2023-04-25T07:27:36;21.65;;;4.82;;
37955;SDS011;23776;51.592;7.180;2023-04-25T07:30:02;27.17;;;4.68;;
37955;SDS011;23776;51.592;7.180;2023-04-25T07:32:29;10.07;;;3.25;;
37955;SDS011;23776;51.592;7.180;2023-04-25T07:34:54;15.77;;;3.53;;
37955;SDS011;23776;51.592;7.180;2023-04-25T07:37:20;19.38;;;4.00;;
37955;SDS011;23776;51.592;7.180;2023-04-25T07:39:46;21.00;;;4.38;;
37955;SDS011;23776;51.592;7.180;2023-04-25T07:42:12;22.65;;;4.40;;
37955;SDS011;23776;51.592;7.180;2023-04-25T07:44:38;17.83;;;3.30;;
37955;SDS011;23776;51.592;7.180;2023-04-25T07:47:05;12.30;;;2.95;;
37955;SDS011;23776;51.592;7.180;2023-04-25T07:49:34;16.17;;;3.60;;
37955;SDS011;23776;51.592;7.180;2023-04-25T07:52:00;14.32;;;3.38;;
37955;SDS011;23776;51.592;7.180;2023-04-25T07:54:26;17.45;;;3.03;;
37955;SDS011;23776;51.592;7.180;2023-04-25T07:56:52;12.27;;;3.20;;
37955;SDS011;23776;51.592;7.180;2023-04-25T07:59:18;18.77;;;3.33;;
37955;SDS011;23776;51.592;7.180;2023-04-25T08:01:43;15.77;;;2.50;;
37955;SDS011;23776;51.592;7.180;2023-04-25T08:04:09;18.25;;;2.55;;
37955;SDS011;23776;51.592;7.180;2023-04-25T08:06:35;16.50;;;3.03;;
37955;SDS011;23776;51.592;7.180;2023-04-25T08:09:00;15.07;;;2.90;;
37955;SDS011;23776;51.592;7.180;2023-04-25T08:11:26;16.73;;;2.65;;
37955;SDS011;23776;51.592;7.180;2023-04-25T08:13:52;11.88;;;2.50;;
37955;SDS011;23776;51.592;7.180;2023-04-25T08:16:17;12.80;;;2.65;;
37955;SDS011;23776;51.592;7.180;2023-04-25T08:18:43;11.07;;;2.78;;
37955;SDS011;23776;51.592;7.180;2023-04-25T08:21:08;17.08;;;3.17;;
37955;SDS011;23776;51.592;7.180;2023-04-25T08:23:36;16.02;;;2.55;;
37955;SDS011;23776;51.592;7.180;2023-04-25T08:26:02;18.23;;;3.03;;
37955;SDS011;23776;51.592;7.180;2023-04-25T08:28:28;11.48;;;2.40;;
37955;SDS011;23776;51.592;7.180;2023-04-25T08:30:53;11.88;;;2.30;;
37955;SDS011;23776;51.592;7.180;2023-04-25T08:33:19;10.13;;;2.20;;
37955;SDS011;23776;51.592;7.180;2023-04-25T08:35:45;14.70;;;2.70;;
37955;SDS011;23776;51.592;7.180;2023-04-25T08:38:10;12.40;;;2.72;;
37955;SDS011;23776;51.592;7.180;2023-04-25T08:40:38;15.65;;;3.50;;
37955;SDS011;23776;51.592;7.180;2023-04-25T08:43:05;18.05;;;3.20;;
37955;SDS011;23776;51.592;7.180;2023-04-25T08:45:36;18.88;;;3.63;;
37955;SDS011;23776;51.592;7.180;2023-04-25T08:48:05;9.55;;;2.58;;
37955;SDS011;23776;51.592;7.180;2023-04-25T08:50:36;12.65;;;2.42;;
37955;SDS011;23776;51.592;7.180;2023-04-25T08:53:16;15.73;;;2.67;;
37955;SDS011;23776;51.592;7.180;2023-04-25T08:55:44;10.13;;;2.33;;
37955;SDS011;23776;51.592;7.180;2023-04-25T08:58:11;14.70;;;2.13;;
37955;SDS011;23776;51.592;7.180;2023-04-25T09:00:38;13.80;;;3.22;;
37955;SDS011;23776;51.592;7.180;2023-04-25T09:03:04;15.93;;;2.90;;
37955;SDS011;23776;51.592;7.180;2023-04-25T09:05:30;7.35;;;2.15;;
37955;SDS011;23776;51.592;7.180;2023-04-25T09:07:57;10.30;;;1.92;;
37955;SDS011;23776;51.592;7.180;2023-04-25T09:10:23;9.60;;;2.40;;
37955;SDS011;23776;51.592;7.180;2023-04-25T09:15:52;20.35;;;2.33;;
37955;SDS011;23776;51.592;7.180;2023-04-25T09:20:51;9.90;;;2.25;;
37955;SDS011;23776;51.592;7.180;2023-04-25T09:23:22;21.52;;;3.63;;
37955;SDS011;23776;51.592;7.180;2023-04-25T09:25:48;13.13;;;2.50;;
37955;SDS011;23776;51.592;7.180;2023-04-25T09:28:22;17.10;;;3.15;;
37955;SDS011;23776;51.592;7.180;2023-04-25T09:30:52;14.98;;;2.10;;
37955;SDS011;23776;51.592;7.180;2023-04-25T09:33:20;16.17;;;2.13;;
37955;SDS011;23776;51.592;7.180;2023-04-25T09:36:03;11.98;;;1.90;;
37955;SDS011;23776;51.592;7.180;2023-04-25T09:38:31;7.85;;;1.70;;
37955;SDS011;23776;51.592;7.180;2023-04-25T09:40:57;13.65;;;2.75;;
37955;SDS011;23776;51.592;7.180;2023-04-25T09:43:25;9.15;;;1.75;;
37955;SDS011;23776;51.592;7.180;2023-04-25T09:45:52;10.75;;;2.60;;
37955;SDS011;23776;51.592;7.180;2023-04-25T09:48:22;7.07;;;1.45;;
37955;SDS011;23776;51.592;7.180;2023-04-25T09:51:08;11.20;;;1.60;;
37955;SDS011;23776;51.592;7.180;2023-04-25T09:53:35;13.10;;;1.88;;
37955;SDS011;23776;51.592;7.180;2023-04-25T09:56:06;5.38;;;1.30;;
37955;SDS011;23776;51.592;7.180;2023-04-25T09:58:33;9.27;;;1.60;;
37955;SDS011;23776;51.592;7.180;2023-04-25T10:01:01;11.25;;;2.30;;
37955;SDS011;23776;51.592;7.180;2023-04-25T10:03:32;8.30;;;1.35;;
37955;SDS011;23776;51.592;7.180;2023-04-25T10:06:23;10.20;;;1.95;;
37955;SDS011;23776;51.592;7.180;2023-04-25T10:08:49;9.38;;;1.83;;
37955;SDS011;23776;51.592;7.180;2023-04-25T10:11:18;5.90;;;1.40;;
37955;SDS011;23776;51.592;7.180;2023-04-25T10:13:45;9.57;;;1.90;;
37955;SDS011;23776;51.592;7.180;2023-04-25T10:16:12;6.35;;;1.52;;
37955;SDS011;23776;51.592;7.180;2023-04-25T10:18:38;9.40;;;1.30;;
37955;SDS011;23776;51.592;7.180;2023-04-25T10:21:04;6.82;;;1.35;;
37955;SDS011;23776;51.592;7.180;2023-04-25T10:23:31;9.15;;;1.50;;
37955;SDS011;23776;51.592;7.180;2023-04-25T10:25:57;8.93;;;1.33;;
37955;SDS011;23776;51.592;7.180;2023-04-25T10:28:23;6.35;;;1.17;;
37955;SDS011;23776;51.592;7.180;2023-04-25T10:33:35;7.10;;;1.60;;
37955;SDS011;23776;51.592;7.180;2023-04-25T10:36:12;11.40;;;1.92;;
37955;SDS011;23776;51.592;7.180;2023-04-25T10:38:39;14.13;;;1.60;;
37955;SDS011;23776;51.592;7.180;2023-04-25T10:41:07;7.40;;;1.60;;
37955;SDS011;23776;51.592;7.180;2023-04-25T10:43:40;11.57;;;1.77;;
37955;SDS011;23776;51.592;7.180;2023-04-25T10:46:17;15.00;;;2.05;;
37955;SDS011;23776;51.592;7.180;2023-04-25T10:48:51;8.73;;;1.63;;
37955;SDS011;23776;51.592;7.180;2023-04-25T10:51:33;9.95;;;1.52;;
37955;SDS011;23776;51.592;7.180;2023-04-25T10:54:00;9.60;;;1.63;;
37955;SDS011;23776;51.592;7.180;2023-04-25T10:59:04;9.88;;;1.80;;
37955;SDS011;23776;51.592;7.180;2023-04-25T11:01:41;11.15;;;2.45;;
37955;SDS011;23776;51.592;7.180;2023-04-25T11:04:21;9.65;;;1.85;;
37955;SDS011;23776;51.592;7.180;2023-04-25T11:06:55;8.27;;;1.92;;
37955;SDS011;23776;51.592;7.180;2023-04-25T11:09:42;11.70;;;2.20;;
37955;SDS011;23776;51.592;7.180;2023-04-25T11:12:10;9.23;;;2.30;;
37955;SDS011;23776;51.592;7.180;2023-04-25T11:14:39;13.52;;;1.92;;
37955;SDS011;23776;51.592;7.180;2023-04-25T11:17:05;5.18;;;1.42;;
37955;SDS011;23776;51.592;7.180;2023-04-25T11:19:31;7.20;;;1.40;;
37955;SDS011;23776;51.592;7.180;2023-04-25T11:21:57;6.53;;;1.80;;
37955;SDS011;23776;51.592;7.180;2023-04-25T11:24:28;9.05;;;1.40;;
37955;SDS011;23776;51.592;7.180;2023-04-25T11:26:58;8.20;;;1.40;;
37955;SDS011;23776;51.592;7.180;2023-04-25T11:29:27;6.30;;;1.45;;
37955;SDS011;23776;51.592;7.180;2023-04-25T11:31:56;7.35;;;1.55;;
37955;SDS011;23776;51.592;7.180;2023-04-25T11:34:23;4.30;;;1.30;;
37955;SDS011;23776;51.592;7.180;2023-04-25T11:36:50;10.43;;;1.42;;
37955;SDS011;23776;51.592;7.180;2023-04-25T11:39:17;7.90;;;1.25;;
37955;SDS011;23776;51.592;7.180;2023-04-25T11:41:46;4.90;;;1.10;;
37955;SDS011;23776;51.592;7.180;2023-04-25T11:44:12;7.47;;;1.40;;
37955;SDS011;23776;51.592;7.180;2023-04-25T11:46:40;2.40;;;0.70;;
37955;SDS011;23776;51.592;7.180;2023-04-25T11:49:07;4.45;;;0.80;;
37955;SDS011;23776;51.592;7.180;2023-04-25T11:51:42;2.28;;;0.65;;
37955;SDS011;23776;51.592;7.180;2023-04-25T11:54:12;6.95;;;1.00;;
37955;SDS011;23776;51.592;7.180;2023-04-25T11:56:42;2.97;;;0.80;;
37955;SDS011;23776;51.592;7.180;2023-04-25T11:59:11;6.85;;;0.70;;
37955;SDS011;23776;51.592;7.180;2023-04-25T12:01:38;4.07;;;0.80;;
37955;SDS011;23776;51.592;7.180;2023-04-25T12:06:37;2.88;;;1.00;;
37955;SDS011;23776;51.592;7.180;2023-04-25T12:09:10;6.78;;;0.85;;
37955;SDS011;23776;51.592;7.180;2023-04-25T12:11:46;4.05;;;0.88;;
37955;SDS011;23776;51.592;7.180;2023-04-25T12:14:23;4.35;;;1.02;;
37955;SDS011;23776;51.592;7.180;2023-04-25T12:16:51;4.15;;;1.02;;
37955;SDS011;23776;51.592;7.180;2023-04-25T12:19:17;6.10;;;1.05;;
37955;SDS011;23776;51.592;7.180;2023-04-25T12:21:43;5.65;;;1.10;;
37955;SDS011;23776;51.592;7.180;2023-04-25T12:24:16;5.82;;;1.17;;
37955;SDS011;23776;51.592;7.180;2023-04-25T12:26:57;2.88;;;1.00;;
37955;SDS011;23776;51.592;7.180;2023-04-25T12:29:24;5.10;;;1.10;;
37955;SDS011;23776;51.592;7.180;2023-04-25T12:31:51;3.25;;;0.80;;
37955;SDS011;23776;51.592;7.180;2023-04-25T12:34:18;3.58;;;0.70;;
37955;SDS011;23776;51.592;7.180;2023-04-25T12:36:44;6.57;;;1.00;;
37955;SDS011;23776;51.592;7.180;2023-04-25T12:39:20;7.63;;;1.00;;
37955;SDS011;23776;51.592;7.180;2023-04-25T12:41:48;4.70;;;0.80;;
37955;SDS011;23776;51.592;7.180;2023-04-25T12:44:14;5.88;;;0.75;;
37955;SDS011;23776;51.592;7.180;2023-04-25T12:46:40;3.88;;;1.00;;
37955;SDS011;23776;51.592;7.180;2023-04-25T12:49:06;4.68;;;0.70;;
37955;SDS011;23776;51.592;7.180;2023-04-25T12:51:33;3.83;;;0.80;;
37955;SDS011;23776;51.592;7.180;2023-04-25T12:53:59;4.47;;;0.77;;
37955;SDS011;23776;51.592;7.180;2023-04-25T12:56:26;3.58;;;1.00;;
37955;SDS011;23776;51.592;7.180;2023-04-25T12:58:52;2.53;;;0.95;;
37955;SDS011;23776;51.592;7.180;2023-04-25T13:01:18;4.13;;;1.05;;
37955;SDS011;23776;51.592;7.180;2023-04-25T13:03:44;6.25;;;1.17;;
37955;SDS011;23776;51.592;7.180;2023-04-25T13:06:10;8.27;;;1.17;;
37955;SDS011;23776;51.592;7.180;2023-04-25T13:08:36;6.50;;;1.05;;
37955;SDS011;23776;51.592;7.180;2023-04-25T13:11:03;3.67;;;1.13;;
37955;SDS011;23776;51.592;7.180;2023-04-25T13:13:29;6.55;;;1.00;;
37955;SDS011;23776;51.592;7.180;2023-04-25T13:15:54;5.72;;;1.23;;
37955;SDS011;23776;51.592;7.180;2023-04-25T13:18:20;6.70;;;1.00;;
37955;SDS011;23776;51.592;7.180;2023-04-25T13:20:46;4.15;;;1.00;;
37955;SDS011;23776;51.592;7.180;2023-04-25T13:23:11;6.57;;;1.33;;
37955;SDS011;23776;51.592;7.180;2023-04-25T13:25:37;7.05;;;2.08;;
37955;SDS011;23776;51.592;7.180;2023-04-25T13:28:03;6.00;;;1.05;;
37955;SDS011;23776;51.592;7.180;2023-04-25T13:30:28;4.68;;;1.25;;
37955;SDS011;23776;51.592;7.180;2023-04-25T13:32:54;6.45;;;1.20;;
37955;SDS011;23776;51.592;7.180;2023-04-25T13:35:21;7.05;;;1.33;;
37955;SDS011;23776;51.592;7.180;2023-04-25T13:37:47;5.85;;;1.15;;
37955;SDS011;23776;51.592;7.180;2023-04-25T13:40:13;11.60;;;1.33;;
37955;SDS011;23776;51.592;7.180;2023-04-25T13:42:39;6.75;;;1.30;;
37955;SDS011;23776;51.592;7.180;2023-04-25T13:45:05;6.35;;;0.90;;
37955;SDS011;23776;51.592;7.180;2023-04-25T13:47:32;4.72;;;1.77;;
37955;SDS011;23776;51.592;7.180;2023-04-25T13:49:57;5.72;;;1.13;;
37955;SDS011;23776;51.592;7.180;2023-04-25T13:52:23;5.40;;;1.55;;
37955;SDS011;23776;51.592;7.180;2023-04-25T13:54:49;4.07;;;1.20;;
37955;SDS011;23776;51.592;7.180;2023-04-25T13:57:16;7.60;;;1.40;;
37955;SDS011;23776;51.592;7.180;2023-04-25T13:59:42;6.30;;;1.25;;
37955;SDS011;23776;51.592;7.180;2023-04-25T14:02:08;5.80;;;0.95;;
37955;SDS011;23776;51.592;7.180;2023-04-25T14:04:34;3.55;;;1.00;;
37955;SDS011;23776;51.592;7.180;2023-04-25T14:07:00;5.97;;;1.67;;
37955;SDS011;23776;51.592;7.180;2023-04-25T14:09:27;5.50;;;1.23;;
37955;SDS011;23776;51.592;7.180;2023-04-25T14:11:53;4.10;;;1.10;;
37955;SDS011;23776;51.592;7.180;2023-04-25T14:14:19;4.32;;;0.80;;
37955;SDS011;23776;51.592;7.180;2023-04-25T14:16:49;2.05;;;0.80;;
37955;SDS011;23776;51.592;7.180;2023-04-25T14:19:15;3.03;;;1.00;;
37955;SDS011;23776;51.592;7.180;2023-04-25T14:21:41;5.13;;;0.80;;
37955;SDS011;23776;51.592;7.180;2023-04-25T14:24:10;1.63;;;0.80;;
37955;SDS011;23776;51.592;7.180;2023-04-25T14:26:36;2.65;;;0.60;;
37955;SDS011;23776;51.592;7.180;2023-04-25T14:29:03;3.85;;;0.90;;
37955;SDS011;23776;51.592;7.180;2023-04-25T14:31:30;1.17;;;0.60;;
37955;SDS011;23776;51.592;7.180;2023-04-25T14:33:56;2.88;;;0.90;;
37955;SDS011;23776;51.592;7.180;2023-04-25T14:36:22;4.45;;;0.90;;
37955;SDS011;23776;51.592;7.180;2023-04-25T14:38:47;4.25;;;0.90;;
37955;SDS011;23776;51.592;7.180;2023-04-25T14:41:13;5.65;;;1.30;;
37955;SDS011;23776;51.592;7.180;2023-04-25T14:43:38;3.25;;;0.80;;
37955;SDS011;23776;51.592;7.180;2023-04-25T14:46:07;3.25;;;1.42;;
37955;SDS011;23776;51.592;7.180;2023-04-25T14:48:32;6.18;;;1.10;;
37955;SDS011;23776;51.592;7.180;2023-04-25T14:50:59;5.63;;;1.13;;